Aérodrome :
LOGIN :

S'inscrire | Disclaimer

   EN    FR    IT 

 










Légende :    VFR   VFR Marginal   IFR   IFR Intensif   IFR Très Intensif
Visi : 
Plafond : 
>= 8 km
>= 3000ft
5 à 8 km
1000 à 3000 ft
1500m à 5 km
500 à 1000 ft
800 à 1500m
200 à 500 ft
< 800m
< 200 ft
Symboles :   Orages  Brouillard  Fortes neiges  Fortes précipitations  Vent > 20 kt
SIGMETs :   Divers  Orages  Givrage  Turbulence  Onde Orograph.  Cendres Volcan.






- Altitude de l'aérodrome : 15 ft
- Code IATA : ZTH


LGZA - Dionysios Solomos

DERNIER METAR :
  • 280950Z 20011KT 9999 FEW015 BKN020 15/07 Q1015

METARs EXPIRÉS :
  • 280850Z VRB03KT 9999 BKN025 SCT070 14/07 Q1015
  • 280750Z VRB03KT 9999 BKN025 SCT070 11/06 Q1016

TAF TAF LGZA
Valide du 28 à 09h jusqu'au 28 à 18h UTC


280800Z 2809/2818 24015KT 9999 SCT014 SCT020 BKN080
TEMPO 2812/2814 27015G25KT
BECMG 2816/2818 31016G26KT
PROB40
TEMPO 2810/2818 5000 RA SCT014 SCT020TCU BKN070
PROB40
TEMPO 2813/2818 3000 TSRA SCT014 FEW020CB SCT025 BKN025 BKN070



MET'MAP, la Météo Aéronautique d'un coup d'oeil ! - Copyright ORBIFLY Décembre 2007 - Disclaimer

ORBIFLY MET'MAP TEAM :

Programmation & Développement : Alexandra Zaïnal
Sur une idée originale de : Baudouin d'Aumeries
Assistance à la programmation : Marc-Olivier Méhu
Soutien technique & logistique : Manuel Goepfert

Contact : metmap@orbifly.com




SOURCES & CREDITS :

   NOAA